sensor_id;sensor_type;location;lat;lon;timestamp;P1;durP1;ratioP1;P2;durP2;ratioP2
42866;SDS011;39461;40.948;73.006;2023-02-01T01:55:18;87.45;;;41.28;;
42866;SDS011;39461;40.948;73.006;2023-02-01T01:57:58;77.80;;;38.30;;
42866;SDS011;39461;40.948;73.006;2023-02-01T02:00:34;72.63;;;35.25;;
42866;SDS011;39461;40.948;73.006;2023-02-01T02:03:18;67.30;;;33.00;;
42866;SDS011;39461;40.948;73.006;2023-02-01T02:05:53;65.53;;;32.83;;
42866;SDS011;39461;40.948;73.006;2023-02-01T02:08:28;61.70;;;31.52;;
42866;SDS011;39461;40.948;73.006;2023-02-01T02:11:02;69.95;;;32.22;;
42866;SDS011;39461;40.948;73.006;2023-02-01T02:13:36;64.10;;;28.85;;
42866;SDS011;39461;40.948;73.006;2023-02-01T02:27:59;71.68;;;31.83;;
42866;SDS011;39461;40.948;73.006;2023-02-01T02:38:44;121.80;;;54.20;;
42866;SDS011;39461;40.948;73.006;2023-02-01T02:47:33;145.73;;;72.45;;
42866;SDS011;39461;40.948;73.006;2023-02-01T02:53:06;171.75;;;84.93;;
42866;SDS011;39461;40.948;73.006;2023-02-01T02:56:01;185.30;;;89.93;;
42866;SDS011;39461;40.948;73.006;2023-02-01T02:58:54;164.23;;;81.68;;
42866;SDS011;39461;40.948;73.006;2023-02-01T03:01:51;172.05;;;90.63;;
42866;SDS011;39461;40.948;73.006;2023-02-01T03:04:44;192.95;;;101.50;;
42866;SDS011;39461;40.948;73.006;2023-02-01T03:10:18;415.23;;;200.68;;
42866;SDS011;39461;40.948;73.006;2023-02-01T03:13:00;433.67;;;218.70;;
42866;SDS011;39461;40.948;73.006;2023-02-01T03:18:51;530.95;;;300.90;;
42866;SDS011;39461;40.948;73.006;2023-02-01T03:24:02;390.98;;;140.02;;
42866;SDS011;39461;40.948;73.006;2023-02-01T03:26:30;259.33;;;136.30;;
42866;SDS011;39461;40.948;73.006;2023-02-01T03:29:12;272.10;;;147.95;;
42866;SDS011;39461;40.948;73.006;2023-02-01T03:31:48;272.98;;;145.85;;
42866;SDS011;39461;40.948;73.006;2023-02-01T03:37:24;274.50;;;149.15;;
42866;SDS011;39461;40.948;73.006;2023-02-01T03:40:02;278.30;;;140.38;;
42866;SDS011;39461;40.948;73.006;2023-02-01T03:42:42;236.32;;;127.57;;
42866;SDS011;39461;40.948;73.006;2023-02-01T03:45:18;252.98;;;130.13;;
42866;SDS011;39461;40.948;73.006;2023-02-01T03:47:56;197.38;;;104.25;;
42866;SDS011;39461;40.948;73.006;2023-02-01T03:50:34;158.95;;;85.15;;
42866;SDS011;39461;40.948;73.006;2023-02-01T03:53:09;155.35;;;83.43;;
42866;SDS011;39461;40.948;73.006;2023-02-01T03:55:43;141.82;;;76.65;;
42866;SDS011;39461;40.948;73.006;2023-02-01T03:58:17;141.25;;;73.20;;
42866;SDS011;39461;40.948;73.006;2023-02-01T04:00:58;195.75;;;99.53;;
42866;SDS011;39461;40.948;73.006;2023-02-01T04:03:38;181.65;;;98.50;;
42866;SDS011;39461;40.948;73.006;2023-02-01T04:06:11;217.82;;;108.45;;
42866;SDS011;39461;40.948;73.006;2023-02-01T04:08:45;300.48;;;137.48;;
42866;SDS011;39461;40.948;73.006;2023-02-01T04:11:20;187.73;;;93.13;;
42866;SDS011;39461;40.948;73.006;2023-02-01T04:13:53;202.55;;;93.10;;
42866;SDS011;39461;40.948;73.006;2023-02-01T04:16:28;160.40;;;85.10;;
42866;SDS011;39461;40.948;73.006;2023-02-01T04:19:04;123.88;;;63.13;;
42866;SDS011;39461;40.948;73.006;2023-02-01T04:21:39;71.15;;;42.67;;
42866;SDS011;39461;40.948;73.006;2023-02-01T04:24:11;74.65;;;38.97;;
42866;SDS011;39461;40.948;73.006;2023-02-01T04:26:38;80.55;;;42.00;;
42866;SDS011;39461;40.948;73.006;2023-02-01T04:29:08;83.82;;;42.97;;
42866;SDS011;39461;40.948;73.006;2023-02-01T04:31:35;73.03;;;42.33;;
42866;SDS011;39461;40.948;73.006;2023-02-01T04:34:05;72.18;;;40.83;;
42866;SDS011;39461;40.948;73.006;2023-02-01T04:36:36;78.75;;;42.65;;
42866;SDS011;39461;40.948;73.006;2023-02-01T04:39:04;68.35;;;38.42;;
42866;SDS011;39461;40.948;73.006;2023-02-01T04:41:33;65.75;;;36.53;;
42866;SDS011;39461;40.948;73.006;2023-02-01T04:44:02;75.05;;;41.60;;
42866;SDS011;39461;40.948;73.006;2023-02-01T04:46:31;85.38;;;47.33;;
42866;SDS011;39461;40.948;73.006;2023-02-01T04:49:03;91.90;;;49.33;;
42866;SDS011;39461;40.948;73.006;2023-02-01T04:51:37;101.15;;;52.33;;
42866;SDS011;39461;40.948;73.006;2023-02-01T04:54:08;112.03;;;56.20;;
42866;SDS011;39461;40.948;73.006;2023-02-01T04:56:38;131.05;;;63.20;;
42866;SDS011;39461;40.948;73.006;2023-02-01T04:59:07;136.57;;;70.22;;
42866;SDS011;39461;40.948;73.006;2023-02-01T05:01:36;137.88;;;71.38;;
42866;SDS011;39461;40.948;73.006;2023-02-01T05:04:04;144.68;;;72.05;;
42866;SDS011;39461;40.948;73.006;2023-02-01T05:06:31;131.75;;;70.75;;
42866;SDS011;39461;40.948;73.006;2023-02-01T05:08:58;121.47;;;67.80;;
42866;SDS011;39461;40.948;73.006;2023-02-01T05:11:26;120.80;;;65.80;;
42866;SDS011;39461;40.948;73.006;2023-02-01T05:14:18;132.82;;;71.43;;
42866;SDS011;39461;40.948;73.006;2023-02-01T05:16:46;137.57;;;73.55;;
42866;SDS011;39461;40.948;73.006;2023-02-01T05:19:13;144.50;;;74.10;;
42866;SDS011;39461;40.948;73.006;2023-02-01T05:21:40;146.57;;;76.78;;
42866;SDS011;39461;40.948;73.006;2023-02-01T05:24:07;176.07;;;88.22;;
42866;SDS011;39461;40.948;73.006;2023-02-01T05:26:34;169.10;;;92.80;;
42866;SDS011;39461;40.948;73.006;2023-02-01T05:29:01;182.15;;;100.38;;
42866;SDS011;39461;40.948;73.006;2023-02-01T05:31:28;192.45;;;108.38;;
42866;SDS011;39461;40.948;73.006;2023-02-01T05:53:30;224.05;;;133.27;;
42866;SDS011;39461;40.948;73.006;2023-02-01T05:55:57;264.95;;;165.00;;
42866;SDS011;39461;40.948;73.006;2023-02-01T05:58:24;325.48;;;199.82;;
42866;SDS011;39461;40.948;73.006;2023-02-01T06:00:52;384.63;;;238.25;;
42866;SDS011;39461;40.948;73.006;2023-02-01T06:03:25;404.70;;;254.20;;
42866;SDS011;39461;40.948;73.006;2023-02-01T06:05:52;400.83;;;253.23;;
42866;SDS011;39461;40.948;73.006;2023-02-01T06:08:19;350.25;;;218.98;;
42866;SDS011;39461;40.948;73.006;2023-02-01T06:10:46;327.10;;;195.60;;
42866;SDS011;39461;40.948;73.006;2023-02-01T06:13:15;301.33;;;175.50;;
42866;SDS011;39461;40.948;73.006;2023-02-01T06:15:41;294.50;;;176.65;;
42866;SDS011;39461;40.948;73.006;2023-02-01T06:18:09;304.30;;;190.82;;
42866;SDS011;39461;40.948;73.006;2023-02-01T06:20:37;347.20;;;213.05;;
42866;SDS011;39461;40.948;73.006;2023-02-01T06:23:04;354.73;;;218.05;;
42866;SDS011;39461;40.948;73.006;2023-02-01T06:25:32;334.13;;;205.00;;
42866;SDS011;39461;40.948;73.006;2023-02-01T06:28:03;334.65;;;205.48;;
42866;SDS011;39461;40.948;73.006;2023-02-01T06:30:31;331.83;;;203.15;;
42866;SDS011;39461;40.948;73.006;2023-02-01T06:32:58;321.08;;;194.60;;
42866;SDS011;39461;40.948;73.006;2023-02-01T06:35:24;295.70;;;176.82;;
42866;SDS011;39461;40.948;73.006;2023-02-01T06:37:51;271.30;;;161.77;;
42866;SDS011;39461;40.948;73.006;2023-02-01T06:40:20;294.02;;;171.65;;
42866;SDS011;39461;40.948;73.006;2023-02-01T06:42:49;292.63;;;170.18;;
42866;SDS011;39461;40.948;73.006;2023-02-01T06:45:18;292.05;;;180.35;;
42866;SDS011;39461;40.948;73.006;2023-02-01T06:47:46;274.40;;;167.18;;
42866;SDS011;39461;40.948;73.006;2023-02-01T06:50:21;244.13;;;148.48;;
42866;SDS011;39461;40.948;73.006;2023-02-01T06:52:48;272.50;;;163.23;;
42866;SDS011;39461;40.948;73.006;2023-02-01T06:55:17;279.08;;;164.77;;
42866;SDS011;39461;40.948;73.006;2023-02-01T06:57:46;253.52;;;152.00;;
42866;SDS011;39461;40.948;73.006;2023-02-01T07:00:12;214.48;;;128.05;;
42866;SDS011;39461;40.948;73.006;2023-02-01T07:02:39;183.40;;;104.75;;
42866;SDS011;39461;40.948;73.006;2023-02-01T07:05:06;152.35;;;89.28;;
42866;SDS011;39461;40.948;73.006;2023-02-01T07:07:33;153.32;;;79.32;;
42866;SDS011;39461;40.948;73.006;2023-02-01T07:09:59;122.90;;;69.57;;
42866;SDS011;39461;40.948;73.006;2023-02-01T07:12:35;116.57;;;67.00;;
42866;SDS011;39461;40.948;73.006;2023-02-01T07:15:02;80.72;;;45.15;;
42866;SDS011;39461;40.948;73.006;2023-02-01T07:17:28;79.53;;;46.53;;
42866;SDS011;39461;40.948;73.006;2023-02-01T07:19:55;72.60;;;41.58;;
42866;SDS011;39461;40.948;73.006;2023-02-01T07:22:27;121.57;;;65.30;;
42866;SDS011;39461;40.948;73.006;2023-02-01T07:24:54;123.65;;;70.63;;
42866;SDS011;39461;40.948;73.006;2023-02-01T07:27:21;105.18;;;61.50;;
42866;SDS011;39461;40.948;73.006;2023-02-01T07:29:50;89.97;;;52.38;;
42866;SDS011;39461;40.948;73.006;2023-02-01T07:32:17;95.85;;;58.00;;
42866;SDS011;39461;40.948;73.006;2023-02-01T07:34:44;83.85;;;46.83;;
42866;SDS011;39461;40.948;73.006;2023-02-01T07:40:12;84.40;;;45.33;;
42866;SDS011;39461;40.948;73.006;2023-02-01T07:42:39;65.68;;;40.25;;
42866;SDS011;39461;40.948;73.006;2023-02-01T07:45:06;61.53;;;37.00;;
42866;SDS011;39461;40.948;73.006;2023-02-01T07:47:33;55.88;;;30.65;;
42866;SDS011;39461;40.948;73.006;2023-02-01T07:50:01;58.15;;;31.90;;
42866;SDS011;39461;40.948;73.006;2023-02-01T07:52:30;51.90;;;29.70;;
42866;SDS011;39461;40.948;73.006;2023-02-01T07:54:57;60.70;;;37.63;;
42866;SDS011;39461;40.948;73.006;2023-02-01T07:57:23;52.83;;;32.55;;
42866;SDS011;39461;40.948;73.006;2023-02-01T07:59:52;76.50;;;44.63;;
42866;SDS011;39461;40.948;73.006;2023-02-01T08:02:44;70.95;;;40.65;;
42866;SDS011;39461;40.948;73.006;2023-02-01T08:05:11;74.88;;;42.25;;
42866;SDS011;39461;40.948;73.006;2023-02-01T08:07:37;78.95;;;45.25;;
42866;SDS011;39461;40.948;73.006;2023-02-01T08:10:10;106.35;;;67.85;;
42866;SDS011;39461;40.948;73.006;2023-02-01T08:12:38;99.30;;;56.95;;
42866;SDS011;39461;40.948;73.006;2023-02-01T08:15:06;106.05;;;63.88;;
42866;SDS011;39461;40.948;73.006;2023-02-01T08:17:33;107.53;;;65.45;;
42866;SDS011;39461;40.948;73.006;2023-02-01T08:20:00;65.35;;;42.95;;
42866;SDS011;39461;40.948;73.006;2023-02-01T08:22:31;54.25;;;33.55;;
42866;SDS011;39461;40.948;73.006;2023-02-01T08:24:58;61.55;;;35.90;;
42866;SDS011;39461;40.948;73.006;2023-02-01T08:27:26;60.67;;;36.35;;
42866;SDS011;39461;40.948;73.006;2023-02-01T08:30:00;66.78;;;43.28;;
42866;SDS011;39461;40.948;73.006;2023-02-01T08:32:26;80.75;;;47.10;;
42866;SDS011;39461;40.948;73.006;2023-02-01T08:34:55;60.30;;;39.45;;
42866;SDS011;39461;40.948;73.006;2023-02-01T08:37:24;66.10;;;42.08;;
42866;SDS011;39461;40.948;73.006;2023-02-01T08:39:57;67.95;;;43.70;;
42866;SDS011;39461;40.948;73.006;2023-02-01T08:42:37;87.10;;;51.97;;
42866;SDS011;39461;40.948;73.006;2023-02-01T08:45:25;120.13;;;75.25;;
42866;SDS011;39461;40.948;73.006;2023-02-01T08:48:01;80.03;;;47.30;;
42866;SDS011;39461;40.948;73.006;2023-02-01T08:50:39;76.15;;;46.10;;
42866;SDS011;39461;40.948;73.006;2023-02-01T08:53:14;88.97;;;52.75;;
42866;SDS011;39461;40.948;73.006;2023-02-01T08:55:49;84.90;;;50.10;;
42866;SDS011;39461;40.948;73.006;2023-02-01T08:58:24;90.30;;;51.05;;
42866;SDS011;39461;40.948;73.006;2023-02-01T09:01:02;88.28;;;54.45;;
42866;SDS011;39461;40.948;73.006;2023-02-01T09:03:35;92.43;;;55.95;;
42866;SDS011;39461;40.948;73.006;2023-02-01T09:06:09;85.65;;;52.53;;
42866;SDS011;39461;40.948;73.006;2023-02-01T09:08:42;87.35;;;49.72;;
42866;SDS011;39461;40.948;73.006;2023-02-01T09:11:18;96.60;;;55.58;;
42866;SDS011;39461;40.948;73.006;2023-02-01T09:13:53;94.28;;;58.20;;
42866;SDS011;39461;40.948;73.006;2023-02-01T09:16:26;92.22;;;56.13;;
42866;SDS011;39461;40.948;73.006;2023-02-01T09:19:03;94.90;;;53.90;;
42866;SDS011;39461;40.948;73.006;2023-02-01T09:21:38;86.70;;;52.55;;
42866;SDS011;39461;40.948;73.006;2023-02-01T09:24:09;93.82;;;53.88;;
42866;SDS011;39461;40.948;73.006;2023-02-01T09:26:38;100.38;;;58.40;;
42866;SDS011;39461;40.948;73.006;2023-02-01T09:29:12;99.20;;;60.05;;
42866;SDS011;39461;40.948;73.006;2023-02-01T09:31:47;112.05;;;66.95;;
42866;SDS011;39461;40.948;73.006;2023-02-01T09:34:22;113.47;;;66.95;;
42866;SDS011;39461;40.948;73.006;2023-02-01T09:36:55;107.22;;;65.80;;
42866;SDS011;39461;40.948;73.006;2023-02-01T09:39:31;105.47;;;65.18;;
42866;SDS011;39461;40.948;73.006;2023-02-01T09:42:21;113.85;;;66.45;;
42866;SDS011;39461;40.948;73.006;2023-02-01T09:45:03;105.03;;;61.33;;
42866;SDS011;39461;40.948;73.006;2023-02-01T09:47:43;101.60;;;59.03;;
42866;SDS011;39461;40.948;73.006;2023-02-01T09:50:19;120.30;;;71.97;;
42866;SDS011;39461;40.948;73.006;2023-02-01T09:52:57;98.18;;;58.60;;
42866;SDS011;39461;40.948;73.006;2023-02-01T09:55:36;105.68;;;60.55;;
42866;SDS011;39461;40.948;73.006;2023-02-01T09:58:20;98.28;;;56.47;;
42866;SDS011;39461;40.948;73.006;2023-02-01T10:00:55;81.63;;;47.17;;
42866;SDS011;39461;40.948;73.006;2023-02-01T10:03:35;75.57;;;42.92;;
42866;SDS011;39461;40.948;73.006;2023-02-01T10:06:16;70.10;;;41.20;;
42866;SDS011;39461;40.948;73.006;2023-02-01T10:09:05;78.30;;;43.70;;
42866;SDS011;39461;40.948;73.006;2023-02-01T10:17:24;93.95;;;54.17;;
42866;SDS011;39461;40.948;73.006;2023-02-01T10:23:06;108.45;;;59.97;;
42866;SDS011;39461;40.948;73.006;2023-02-01T10:25:54;128.45;;;71.80;;
42866;SDS011;39461;40.948;73.006;2023-02-01T10:28:28;128.40;;;72.47;;
42866;SDS011;39461;40.948;73.006;2023-02-01T10:31:01;127.95;;;74.65;;
42866;SDS011;39461;40.948;73.006;2023-02-01T10:33:36;116.28;;;69.03;;
42866;SDS011;39461;40.948;73.006;2023-02-01T10:38:45;147.43;;;88.13;;
42866;SDS011;39461;40.948;73.006;2023-02-01T10:41:30;165.80;;;97.82;;
42866;SDS011;39461;40.948;73.006;2023-02-01T10:44:05;163.50;;;96.60;;
42866;SDS011;39461;40.948;73.006;2023-02-01T10:46:44;177.23;;;102.63;;
42866;SDS011;39461;40.948;73.006;2023-02-01T10:49:22;175.82;;;104.53;;
42866;SDS011;39461;40.948;73.006;2023-02-01T10:52:15;165.52;;;101.47;;
42866;SDS011;39461;40.948;73.006;2023-02-01T10:54:52;164.98;;;96.22;;
42866;SDS011;39461;40.948;73.006;2023-02-01T10:57:27;174.05;;;103.25;;
42866;SDS011;39461;40.948;73.006;2023-02-01T11:00:21;171.82;;;104.47;;
42866;SDS011;39461;40.948;73.006;2023-02-01T11:02:55;195.95;;;121.13;;
42866;SDS011;39461;40.948;73.006;2023-02-01T11:08:26;223.93;;;129.23;;
42866;SDS011;39461;40.948;73.006;2023-02-01T11:11:02;220.73;;;131.80;;
42866;SDS011;39461;40.948;73.006;2023-02-01T11:13:38;211.48;;;126.43;;
42866;SDS011;39461;40.948;73.006;2023-02-01T11:16:13;217.43;;;130.60;;
42866;SDS011;39461;40.948;73.006;2023-02-01T11:18:52;206.85;;;127.78;;
42866;SDS011;39461;40.948;73.006;2023-02-01T11:21:28;210.93;;;122.07;;
42866;SDS011;39461;40.948;73.006;2023-02-01T11:23:56;194.20;;;118.28;;
42866;SDS011;39461;40.948;73.006;2023-02-01T11:26:29;190.75;;;115.38;;
42866;SDS011;39461;40.948;73.006;2023-02-01T11:29:05;186.77;;;113.68;;
42866;SDS011;39461;40.948;73.006;2023-02-01T11:31:44;194.15;;;116.60;;
42866;SDS011;39461;40.948;73.006;2023-02-01T11:34:21;198.98;;;122.75;;
42866;SDS011;39461;40.948;73.006;2023-02-01T11:36:59;204.07;;;126.50;;
42866;SDS011;39461;40.948;73.006;2023-02-01T11:39:36;222.02;;;132.25;;
42866;SDS011;39461;40.948;73.006;2023-02-01T11:42:15;214.52;;;132.13;;
42866;SDS011;39461;40.948;73.006;2023-02-01T11:44:51;210.98;;;133.80;;
42866;SDS011;39461;40.948;73.006;2023-02-01T11:47:42;223.73;;;134.02;;
42866;SDS011;39461;40.948;73.006;2023-02-01T11:51:04;235.50;;;142.32;;
42866;SDS011;39461;40.948;73.006;2023-02-01T12:01:41;263.55;;;157.75;;
42866;SDS011;39461;40.948;73.006;2023-02-01T12:06:55;282.95;;;158.05;;
42866;SDS011;39461;40.948;73.006;2023-02-01T12:42:57;378.88;;;227.45;;
42866;SDS011;39461;40.948;73.006;2023-02-01T12:45:39;367.85;;;226.05;;
42866;SDS011;39461;40.948;73.006;2023-02-01T12:48:25;369.95;;;228.18;;
42866;SDS011;39461;40.948;73.006;2023-02-01T12:51:01;382.35;;;229.90;;
42866;SDS011;39461;40.948;73.006;2023-02-01T12:53:45;375.58;;;223.55;;
42866;SDS011;39461;40.948;73.006;2023-02-01T12:56:23;385.92;;;229.10;;
42866;SDS011;39461;40.948;73.006;2023-02-01T12:59:02;388.02;;;230.48;;
42866;SDS011;39461;40.948;73.006;2023-02-01T13:01:41;398.85;;;233.25;;
42866;SDS011;39461;40.948;73.006;2023-02-01T13:04:36;392.60;;;232.57;;
42866;SDS011;39461;40.948;73.006;2023-02-01T13:10:07;407.83;;;245.45;;
42866;SDS011;39461;40.948;73.006;2023-02-01T13:15:24;415.73;;;248.25;;
42866;SDS011;39461;40.948;73.006;2023-02-01T13:18:01;425.83;;;257.20;;
42866;SDS011;39461;40.948;73.006;2023-02-01T13:20:39;430.55;;;254.70;;
42866;SDS011;39461;40.948;73.006;2023-02-01T13:23:22;461.55;;;271.60;;
42866;SDS011;39461;40.948;73.006;2023-02-01T13:25:52;498.23;;;287.35;;
42866;SDS011;39461;40.948;73.006;2023-02-01T13:28:40;518.50;;;302.92;;
42866;SDS011;39461;40.948;73.006;2023-02-01T13:42:15;414.25;;;246.25;;
42866;SDS011;39461;40.948;73.006;2023-02-01T13:44:54;390.17;;;237.82;;
42866;SDS011;39461;40.948;73.006;2023-02-01T13:47:30;359.73;;;214.20;;
42866;SDS011;39461;40.948;73.006;2023-02-01T13:50:12;346.98;;;202.70;;
42866;SDS011;39461;40.948;73.006;2023-02-01T13:52:51;320.75;;;185.25;;
42866;SDS011;39461;40.948;73.006;2023-02-01T14:01:57;293.70;;;167.20;;
42866;SDS011;39461;40.948;73.006;2023-02-01T14:04:01;259.08;;;149.73;;
42866;SDS011;39461;40.948;73.006;2023-02-01T14:06:37;236.25;;;138.00;;
42866;SDS011;39461;40.948;73.006;2023-02-01T14:09:18;217.75;;;129.60;;
42866;SDS011;39461;40.948;73.006;2023-02-01T14:11:54;223.73;;;126.65;;
42866;SDS011;39461;40.948;73.006;2023-02-01T14:22:49;244.25;;;142.40;;
42866;SDS011;39461;40.948;73.006;2023-02-01T14:25:22;246.23;;;145.55;;
42866;SDS011;39461;40.948;73.006;2023-02-01T14:27:58;245.85;;;146.10;;
42866;SDS011;39461;40.948;73.006;2023-02-01T14:30:33;245.52;;;145.30;;
42866;SDS011;39461;40.948;73.006;2023-02-01T14:33:27;237.82;;;145.10;;
42866;SDS011;39461;40.948;73.006;2023-02-01T14:36:10;241.68;;;143.65;;
42866;SDS011;39461;40.948;73.006;2023-02-01T14:38:49;249.70;;;150.15;;
42866;SDS011;39461;40.948;73.006;2023-02-01T14:41:42;260.73;;;150.82;;
42866;SDS011;39461;40.948;73.006;2023-02-01T14:44:22;267.75;;;150.48;;
42866;SDS011;39461;40.948;73.006;2023-02-01T14:52:39;276.23;;;157.93;;
42866;SDS011;39461;40.948;73.006;2023-02-01T14:57:50;256.15;;;152.63;;
42866;SDS011;39461;40.948;73.006;2023-02-01T15:00:29;267.23;;;153.63;;
42866;SDS011;39461;40.948;73.006;2023-02-01T15:06:12;266.40;;;157.68;;
42866;SDS011;39461;40.948;73.006;2023-02-01T15:08:47;279.05;;;163.82;;
42866;SDS011;39461;40.948;73.006;2023-02-01T15:11:23;309.20;;;178.45;;
42866;SDS011;39461;40.948;73.006;2023-02-01T15:13:59;306.83;;;181.15;;
42866;SDS011;39461;40.948;73.006;2023-02-01T15:19:40;277.75;;;159.25;;
42866;SDS011;39461;40.948;73.006;2023-02-01T15:22:24;348.27;;;194.65;;
42866;SDS011;39461;40.948;73.006;2023-02-01T15:24:52;387.75;;;225.05;;
42866;SDS011;39461;40.948;73.006;2023-02-01T15:27:22;304.08;;;182.45;;
42866;SDS011;39461;40.948;73.006;2023-02-01T15:30:06;339.58;;;193.90;;
42866;SDS011;39461;40.948;73.006;2023-02-01T15:35:44;337.58;;;194.20;;
42866;SDS011;39461;40.948;73.006;2023-02-01T15:38:20;267.05;;;154.48;;
42866;SDS011;39461;40.948;73.006;2023-02-01T15:43:43;330.08;;;197.40;;
42866;SDS011;39461;40.948;73.006;2023-02-01T15:46:18;353.08;;;209.63;;
42866;SDS011;39461;40.948;73.006;2023-02-01T15:48:53;328.70;;;196.23;;
42866;SDS011;39461;40.948;73.006;2023-02-01T15:51:33;314.58;;;188.00;;
42866;SDS011;39461;40.948;73.006;2023-02-01T15:54:07;320.73;;;182.90;;
42866;SDS011;39461;40.948;73.006;2023-02-01T15:56:41;337.13;;;200.23;;
42866;SDS011;39461;40.948;73.006;2023-02-01T15:59:16;396.80;;;232.20;;
42866;SDS011;39461;40.948;73.006;2023-02-01T16:01:50;382.63;;;226.77;;
42866;SDS011;39461;40.948;73.006;2023-02-01T16:04:26;394.95;;;235.45;;
42866;SDS011;39461;40.948;73.006;2023-02-01T16:07:03;382.98;;;232.02;;
42866;SDS011;39461;40.948;73.006;2023-02-01T16:09:55;409.27;;;241.25;;
42866;SDS011;39461;40.948;73.006;2023-02-01T16:15:34;437.73;;;261.55;;
42866;SDS011;39461;40.948;73.006;2023-02-01T16:18:10;429.13;;;252.45;;
42866;SDS011;39461;40.948;73.006;2023-02-01T16:20:47;419.00;;;255.05;;
42866;SDS011;39461;40.948;73.006;2023-02-01T16:23:22;400.45;;;236.35;;
42866;SDS011;39461;40.948;73.006;2023-02-01T16:25:58;393.55;;;233.20;;
42866;SDS011;39461;40.948;73.006;2023-02-01T16:28:34;401.75;;;242.45;;
42866;SDS011;39461;40.948;73.006;2023-02-01T16:31:13;410.80;;;241.95;;
42866;SDS011;39461;40.948;73.006;2023-02-01T16:33:52;414.00;;;245.18;;
42866;SDS011;39461;40.948;73.006;2023-02-01T16:36:27;393.73;;;238.20;;
42866;SDS011;39461;40.948;73.006;2023-02-01T16:39:02;406.60;;;242.15;;
42866;SDS011;39461;40.948;73.006;2023-02-01T16:41:36;425.48;;;256.52;;
42866;SDS011;39461;40.948;73.006;2023-02-01T16:44:11;483.02;;;282.67;;
42866;SDS011;39461;40.948;73.006;2023-02-01T16:46:46;504.30;;;295.35;;
42866;SDS011;39461;40.948;73.006;2023-02-01T16:49:23;533.38;;;304.98;;
42866;SDS011;39461;40.948;73.006;2023-02-01T16:51:58;548.38;;;312.55;;
42866;SDS011;39461;40.948;73.006;2023-02-01T16:54:33;537.08;;;316.35;;
42866;SDS011;39461;40.948;73.006;2023-02-01T16:57:11;539.00;;;312.75;;
42866;SDS011;39461;40.948;73.006;2023-02-01T16:59:47;535.25;;;311.20;;
42866;SDS011;39461;40.948;73.006;2023-02-01T17:02:25;523.17;;;307.23;;
42866;SDS011;39461;40.948;73.006;2023-02-01T17:04:59;530.08;;;304.98;;
42866;SDS011;39461;40.948;73.006;2023-02-01T17:07:32;510.85;;;300.77;;
42866;SDS011;39461;40.948;73.006;2023-02-01T17:10:18;518.80;;;300.88;;
42866;SDS011;39461;40.948;73.006;2023-02-01T17:12:54;506.77;;;299.65;;
42866;SDS011;39461;40.948;73.006;2023-02-01T17:15:31;505.08;;;296.40;;
42866;SDS011;39461;40.948;73.006;2023-02-01T17:18:10;497.20;;;295.67;;
42866;SDS011;39461;40.948;73.006;2023-02-01T17:20:49;498.48;;;299.77;;
42866;SDS011;39461;40.948;73.006;2023-02-01T17:23:18;507.10;;;297.23;;
42866;SDS011;39461;40.948;73.006;2023-02-01T17:25:47;498.45;;;301.63;;
42866;SDS011;39461;40.948;73.006;2023-02-01T17:28:21;529.20;;;311.92;;
42866;SDS011;39461;40.948;73.006;2023-02-01T17:31:00;524.97;;;309.17;;
42866;SDS011;39461;40.948;73.006;2023-02-01T17:33:36;530.63;;;315.48;;
42866;SDS011;39461;40.948;73.006;2023-02-01T17:36:12;549.13;;;324.95;;
42866;SDS011;39461;40.948;73.006;2023-02-01T17:38:45;538.10;;;317.38;;
42866;SDS011;39461;40.948;73.006;2023-02-01T17:41:25;556.67;;;329.15;;
42866;SDS011;39461;40.948;73.006;2023-02-01T17:44:00;595.35;;;357.60;;
42866;SDS011;39461;40.948;73.006;2023-02-01T17:49:40;603.25;;;359.95;;
42866;SDS011;39461;40.948;73.006;2023-02-01T17:52:16;615.17;;;370.33;;
42866;SDS011;39461;40.948;73.006;2023-02-01T17:54:50;658.95;;;390.30;;
42866;SDS011;39461;40.948;73.006;2023-02-01T17:57:26;548.85;;;322.13;;
42866;SDS011;39461;40.948;73.006;2023-02-01T18:00:00;450.73;;;265.45;;
42866;SDS011;39461;40.948;73.006;2023-02-01T18:02:36;428.40;;;255.35;;
42866;SDS011;39461;40.948;73.006;2023-02-01T18:05:13;363.35;;;214.25;;
42866;SDS011;39461;40.948;73.006;2023-02-01T18:07:48;400.20;;;235.68;;
42866;SDS011;39461;40.948;73.006;2023-02-01T18:13:22;402.15;;;245.25;;
42866;SDS011;39461;40.948;73.006;2023-02-01T18:15:55;428.92;;;259.45;;
42866;SDS011;39461;40.948;73.006;2023-02-01T18:18:32;415.45;;;258.52;;
42866;SDS011;39461;40.948;73.006;2023-02-01T18:21:12;413.92;;;250.70;;
42866;SDS011;39461;40.948;73.006;2023-02-01T18:23:48;414.75;;;243.45;;
42866;SDS011;39461;40.948;73.006;2023-02-01T18:29:22;332.55;;;194.90;;
42866;SDS011;39461;40.948;73.006;2023-02-01T18:31:57;331.73;;;190.65;;
42866;SDS011;39461;40.948;73.006;2023-02-01T18:34:32;326.05;;;189.27;;
42866;SDS011;39461;40.948;73.006;2023-02-01T18:37:07;320.63;;;185.20;;
42866;SDS011;39461;40.948;73.006;2023-02-01T18:39:43;308.85;;;178.10;;
42866;SDS011;39461;40.948;73.006;2023-02-01T18:42:17;284.83;;;159.95;;
42866;SDS011;39461;40.948;73.006;2023-02-01T18:44:52;260.67;;;150.30;;
42866;SDS011;39461;40.948;73.006;2023-02-01T18:47:27;201.25;;;118.40;;
42866;SDS011;39461;40.948;73.006;2023-02-01T18:50:01;194.80;;;113.35;;
42866;SDS011;39461;40.948;73.006;2023-02-01T18:52:40;207.35;;;114.15;;
42866;SDS011;39461;40.948;73.006;2023-02-01T18:55:13;213.60;;;119.75;;
42866;SDS011;39461;40.948;73.006;2023-02-01T18:57:49;219.90;;;126.10;;
42866;SDS011;39461;40.948;73.006;2023-02-01T19:00:25;192.98;;;111.88;;
42866;SDS011;39461;40.948;73.006;2023-02-01T19:03:00;208.13;;;115.43;;
42866;SDS011;39461;40.948;73.006;2023-02-01T19:08:35;200.82;;;115.68;;
42866;SDS011;39461;40.948;73.006;2023-02-01T19:11:10;207.70;;;118.47;;
42866;SDS011;39461;40.948;73.006;2023-02-01T19:13:48;208.48;;;119.50;;
42866;SDS011;39461;40.948;73.006;2023-02-01T19:16:28;224.80;;;121.40;;
42866;SDS011;39461;40.948;73.006;2023-02-01T19:19:00;208.80;;;119.15;;
42866;SDS011;39461;40.948;73.006;2023-02-01T19:21:33;224.32;;;125.32;;
42866;SDS011;39461;40.948;73.006;2023-02-01T19:24:00;241.23;;;129.35;;
42866;SDS011;39461;40.948;73.006;2023-02-01T19:26:27;239.82;;;129.95;;
42866;SDS011;39461;40.948;73.006;2023-02-01T19:29:03;234.70;;;127.15;;
42866;SDS011;39461;40.948;73.006;2023-02-01T19:31:36;240.60;;;133.38;;
42866;SDS011;39461;40.948;73.006;2023-02-01T19:34:09;225.63;;;128.20;;
42866;SDS011;39461;40.948;73.006;2023-02-01T19:36:42;215.90;;;120.60;;